createdAt,value
2024-02-28T00:02:11.232Z,99829.22
2024-02-28T00:04:42.438Z,99836.75
2024-02-28T00:07:11.246Z,99838.34
2024-02-28T00:09:41.743Z,99842.81
2024-02-28T00:12:11.324Z,99841.37
2024-02-28T00:14:41.019Z,99846.06
2024-02-28T00:17:10.161Z,99845.78
2024-02-28T00:19:38.678Z,99843.94
2024-02-28T00:22:07.443Z,99852.56
2024-02-28T00:24:36.284Z,99844.97
2024-02-28T00:27:09.456Z,99836.28
2024-02-28T00:29:38.209Z,99840.87
2024-02-28T00:32:07.377Z,99838.59
2024-02-28T00:34:36.195Z,99839.06
2024-02-28T00:37:07.783Z,99840.63
2024-02-28T00:39:36.271Z,99835.22
2024-02-28T00:42:05.363Z,99838.81
2024-02-28T00:44:35.747Z,99834.47
2024-02-28T00:47:08.501Z,99836.34
2024-02-28T00:49:37.232Z,99837.88
2024-02-28T00:52:08.978Z,99839.06
2024-02-28T00:54:38.356Z,99839.03
2024-02-28T00:57:08.067Z,99843.06
2024-02-28T00:59:38.422Z,99831.72
2024-02-28T01:02:07.810Z,99840.31
2024-02-28T01:04:36.761Z,99845.94
2024-02-28T01:07:08.437Z,99843.97
2024-02-28T01:09:37.668Z,99848.44
2024-02-28T01:12:06.962Z,99848.75
2024-02-28T01:14:35.554Z,99838.72
2024-02-28T01:17:08.110Z,99847.31
2024-02-28T01:19:36.894Z,99836.53
2024-02-28T01:22:05.540Z,99847.41
2024-02-28T01:24:35.035Z,99837.75
2024-02-28T01:27:07.042Z,99831.56
2024-02-28T01:29:35.992Z,99835.22
2024-02-28T01:32:06.169Z,99840.28
2024-02-28T01:34:40.146Z,99841.72
2024-02-28T01:37:16.243Z,99837.62
2024-02-28T01:39:45.595Z,99839.81
2024-02-28T01:42:16.204Z,99839.78
2024-02-28T01:44:47.041Z,99850.06
2024-02-28T01:47:21.381Z,99840.41
2024-02-28T01:49:52.092Z,99840.63
2024-02-28T01:52:21.483Z,99846.00
2024-02-28T01:54:56.692Z,99855.78
2024-02-28T01:57:25.577Z,99860.28
2024-02-28T01:59:55.830Z,99854.69
2024-02-28T02:02:31.730Z,99860.28
2024-02-28T02:05:01.792Z,99852.53
2024-02-28T02:07:33.754Z,99852.91
2024-02-28T02:10:03.299Z,99861.22
2024-02-28T02:12:36.022Z,99856.78
2024-02-28T02:15:08.467Z,99863.28
2024-02-28T02:17:38.367Z,99865.09
2024-02-28T02:20:08.296Z,99866.91
2024-02-28T02:22:39.713Z,99871.75
2024-02-28T02:25:09.226Z,99863.41
2024-02-28T02:27:40.160Z,99868.12
2024-02-28T02:30:09.594Z,99868.97
2024-02-28T02:32:38.364Z,99871.84
2024-02-28T02:35:07.471Z,99872.22
2024-02-28T02:37:36.254Z,99868.34
2024-02-28T02:40:06.955Z,99869.19
2024-02-28T02:42:35.763Z,99870.78
2024-02-28T02:45:04.433Z,99873.22
2024-02-28T02:47:33.014Z,99871.97
2024-02-28T02:50:01.903Z,99873.94
2024-02-28T02:52:30.707Z,99873.91
2024-02-28T02:54:59.470Z,99875.62
2024-02-28T02:57:31.820Z,99876.84
2024-02-28T03:00:00.852Z,99882.16
2024-02-28T03:02:31.005Z,99876.56
2024-02-28T03:05:01.063Z,99886.25
2024-02-28T03:07:33.264Z,99881.53
2024-02-28T03:10:02.079Z,99886.00
2024-02-28T03:12:32.826Z,99884.81
2024-02-28T03:15:02.329Z,99887.59
2024-02-28T03:17:38.951Z,99895.06
2024-02-28T03:20:08.639Z,99892.28
2024-02-28T03:22:37.367Z,99901.34
2024-02-28T03:25:06.915Z,99903.66
2024-02-28T03:27:37.355Z,99902.16
2024-02-28T03:30:07.135Z,99904.13
2024-02-28T03:32:35.656Z,99898.06
2024-02-28T03:35:06.788Z,99904.13
2024-02-28T03:37:36.132Z,99897.50
2024-02-28T03:40:05.814Z,99900.16
2024-02-28T03:42:34.733Z,99904.09
2024-02-28T03:45:05.657Z,99907.09
2024-02-28T03:47:34.172Z,99901.19
2024-02-28T03:50:04.899Z,99911.63
2024-02-28T03:52:34.116Z,99901.72
2024-02-28T03:55:03.261Z,99915.16
2024-02-28T03:57:32.450Z,99909.69
2024-02-28T04:00:03.157Z,99914.47
2024-02-28T04:02:42.003Z,99922.47
2024-02-28T04:05:11.228Z,99914.94
2024-02-28T04:07:39.910Z,99917.87
2024-02-28T04:10:09.353Z,99918.59
2024-02-28T04:12:38.279Z,99923.66
2024-02-28T04:15:07.701Z,99918.25
2024-02-28T04:17:36.432Z,99921.12
2024-02-28T04:20:09.968Z,99921.97
2024-02-28T04:22:39.040Z,99924.81
2024-02-28T04:25:09.157Z,99925.41
2024-02-28T04:27:39.412Z,99932.28
2024-02-28T04:30:08.491Z,99927.53
2024-02-28T04:32:37.519Z,99918.63
2024-02-28T04:35:07.787Z,99923.44
2024-02-28T04:37:37.638Z,99925.47
2024-02-28T04:40:07.856Z,99923.78
2024-02-28T04:42:37.257Z,99928.50
2024-02-28T04:45:06.008Z,99939.59
2024-02-28T04:47:40.221Z,99933.22
2024-02-28T04:50:14.533Z,99929.88
2024-02-28T04:52:43.167Z,99930.06
2024-02-28T04:55:11.861Z,99931.34
2024-02-28T04:57:41.635Z,99923.19
2024-02-28T05:00:10.607Z,99928.53
2024-02-28T05:02:39.095Z,99936.59
2024-02-28T05:05:08.772Z,99938.00
2024-02-28T05:07:38.721Z,99941.00
2024-02-28T05:10:07.924Z,99943.06
2024-02-28T05:12:37.062Z,99950.94
2024-02-28T05:15:07.785Z,99956.31
2024-02-28T05:17:36.430Z,99957.47
2024-02-28T05:20:05.539Z,99957.53
2024-02-28T05:22:34.304Z,99967.34
2024-02-28T05:25:04.765Z,99969.87
2024-02-28T05:27:33.809Z,99979.25
2024-02-28T05:30:06.946Z,99969.22
2024-02-28T05:32:36.314Z,99976.84
2024-02-28T05:35:05.412Z,99975.12
2024-02-28T05:37:36.000Z,99975.00
2024-02-28T05:40:08.715Z,99968.03
2024-02-28T05:42:37.427Z,99985.56
2024-02-28T05:45:06.565Z,99978.22
2024-02-28T05:47:35.216Z,99981.03
2024-02-28T05:50:03.752Z,99978.81
2024-02-28T05:52:32.664Z,99976.53
2024-02-28T05:55:06.597Z,99989.47
2024-02-28T05:57:35.494Z,99981.03
2024-02-28T06:00:10.838Z,99975.47
2024-02-28T06:02:40.382Z,99981.81
2024-02-28T06:05:10.412Z,99986.09
2024-02-28T06:07:39.297Z,99981.78
2024-02-28T06:10:14.681Z,99989.34
2024-02-28T06:12:43.862Z,99991.75
2024-02-28T06:15:15.535Z,99997.41
2024-02-28T06:17:44.919Z,99991.84
2024-02-28T06:20:14.070Z,99996.56
2024-02-28T06:22:42.788Z,99999.88
2024-02-28T06:25:19.434Z,99999.75
2024-02-28T06:27:49.502Z,99998.50
2024-02-28T06:30:18.835Z,100000.47
2024-02-28T06:32:47.519Z,99993.34
2024-02-28T06:35:17.613Z,100001.88
2024-02-28T06:37:50.954Z,100006.31
2024-02-28T06:40:19.599Z,100005.16
2024-02-28T06:42:50.115Z,100012.69
2024-02-28T06:45:18.733Z,100003.97
2024-02-28T06:47:47.411Z,100007.31
2024-02-28T06:50:16.846Z,100017.78
2024-02-28T06:52:45.595Z,100022.03
2024-02-28T06:55:15.656Z,100026.72
2024-02-28T06:57:44.993Z,100018.22
2024-02-28T07:00:16.099Z,100020.78
2024-02-28T07:02:45.812Z,100033.34
2024-02-28T07:05:14.700Z,100035.62
2024-02-28T07:07:47.228Z,100034.84
2024-02-28T07:10:16.814Z,100028.84
2024-02-28T07:12:45.606Z,100027.91
2024-02-28T07:15:15.842Z,100032.75
2024-02-28T07:17:44.867Z,100037.63
2024-02-28T07:20:13.633Z,100032.47
2024-02-28T07:22:44.198Z,100030.91
2024-02-28T07:25:13.236Z,100035.00
2024-02-28T07:27:41.877Z,100041.00
2024-02-28T07:30:10.800Z,100037.66
2024-02-28T07:32:44.416Z,100034.97
2024-02-28T07:35:14.288Z,100043.56
2024-02-28T07:37:43.494Z,100051.00
2024-02-28T07:40:12.819Z,100050.66
2024-02-28T07:42:42.964Z,100050.75
2024-02-28T07:45:11.990Z,100054.34
2024-02-28T07:47:41.454Z,100054.00
2024-02-28T07:50:11.995Z,100057.66
2024-02-28T07:52:40.982Z,100055.94
2024-02-28T07:55:09.500Z,100062.91
2024-02-28T07:57:38.347Z,100070.63
2024-02-28T08:00:07.925Z,100059.41
2024-02-28T08:02:41.355Z,100068.47
2024-02-28T08:05:11.631Z,100067.34
2024-02-28T08:07:40.107Z,100061.63
2024-02-28T08:10:11.275Z,100068.84
2024-02-28T08:12:40.701Z,100063.87
2024-02-28T08:15:09.321Z,100068.47
2024-02-28T08:17:38.213Z,100070.81
2024-02-28T08:20:07.669Z,100073.84
2024-02-28T08:22:38.111Z,100071.37
2024-02-28T08:25:07.277Z,100068.88
2024-02-28T08:27:36.589Z,100074.19
2024-02-28T08:30:08.675Z,100077.41
2024-02-28T08:32:39.598Z,100078.75
2024-02-28T08:35:12.592Z,100079.59
2024-02-28T08:37:43.778Z,100086.22
2024-02-28T08:40:13.565Z,100082.75
2024-02-28T08:42:42.900Z,100081.22
2024-02-28T08:45:12.011Z,100081.34
2024-02-28T08:47:43.477Z,100067.63
2024-02-28T08:50:12.414Z,100074.09
2024-02-28T08:52:44.237Z,100062.03
2024-02-28T08:55:13.324Z,100066.88
2024-02-28T08:57:42.447Z,100073.28
2024-02-28T09:00:11.773Z,100072.06
2024-02-28T09:02:49.527Z,100061.50
2024-02-28T09:05:19.824Z,100074.22
2024-02-28T09:07:52.922Z,100074.37
2024-02-28T09:10:24.997Z,100071.13
2024-02-28T09:12:54.167Z,100071.09
2024-02-28T09:15:26.385Z,100068.63
2024-02-28T09:17:55.918Z,100065.09
2024-02-28T09:20:25.140Z,100067.50
2024-02-28T09:22:55.108Z,100061.37
2024-02-28T09:25:33.742Z,100068.34
2024-02-28T09:28:03.004Z,100067.91
2024-02-28T09:30:39.913Z,100079.00
2024-02-28T09:33:14.981Z,100070.00
2024-02-28T09:35:44.613Z,100076.06
2024-02-28T09:38:14.711Z,100076.69
2024-02-28T09:40:44.189Z,100078.63
2024-02-28T09:43:17.751Z,100072.59
2024-02-28T09:45:48.697Z,100071.00
2024-02-28T09:48:19.082Z,100073.63
2024-02-28T09:50:48.454Z,100072.66
2024-02-28T09:53:18.608Z,100075.81
2024-02-28T09:55:48.179Z,100066.97
2024-02-28T09:58:18.290Z,100076.12
2024-02-28T10:00:47.176Z,100070.00
2024-02-28T10:03:24.705Z,100078.94
2024-02-28T10:05:53.837Z,100081.56
2024-02-28T10:08:24.450Z,100080.03
2024-02-28T10:10:55.750Z,100084.34
2024-02-28T10:13:24.684Z,100081.16
2024-02-28T10:15:53.611Z,100087.22
2024-02-28T10:18:26.358Z,100089.81
2024-02-28T10:20:55.747Z,100092.44
2024-02-28T10:23:27.110Z,100096.50
2024-02-28T10:25:57.973Z,100102.63
2024-02-28T10:28:28.261Z,100098.31
2024-02-28T10:30:57.402Z,100101.84
2024-02-28T10:33:30.872Z,100106.06
2024-02-28T10:36:00.192Z,100106.06
2024-02-28T10:38:34.376Z,100103.53
2024-02-28T10:41:03.661Z,100092.25
2024-02-28T10:43:35.984Z,100093.84
2024-02-28T10:48:42.664Z,100089.03
2024-02-28T10:51:16.008Z,100098.00
2024-02-28T10:53:49.318Z,100088.06
2024-02-28T10:56:21.449Z,100089.59
2024-02-28T10:58:53.146Z,100085.69
2024-02-28T11:01:22.866Z,100088.03
2024-02-28T11:03:55.575Z,100092.41
2024-02-28T11:06:25.190Z,100089.09
2024-02-28T11:08:55.899Z,100087.03
2024-02-28T11:11:25.423Z,100090.25
2024-02-28T11:13:53.924Z,100090.22
2024-02-28T11:16:28.527Z,100089.22
2024-02-28T11:19:01.397Z,100091.56
2024-02-28T11:21:30.557Z,100081.44
2024-02-28T11:24:01.171Z,100073.84
2024-02-28T11:26:30.138Z,100076.84
2024-02-28T11:28:59.205Z,100077.91
2024-02-28T11:31:27.758Z,100076.03
2024-02-28T11:33:56.779Z,100078.47
2024-02-28T11:36:28.252Z,100073.91
2024-02-28T11:38:59.958Z,100071.97
2024-02-28T11:41:30.882Z,100063.63
2024-02-28T11:43:59.495Z,100068.31
2024-02-28T11:46:34.939Z,100069.34
2024-02-28T11:49:09.691Z,100065.22
2024-02-28T11:51:39.258Z,100060.87
2024-02-28T11:54:09.316Z,100065.47
2024-02-28T11:56:40.623Z,100062.62
2024-02-28T11:59:10.441Z,100058.72
2024-02-28T12:01:41.132Z,100064.47
2024-02-28T12:04:14.337Z,100064.91
2024-02-28T12:06:46.664Z,100060.75
2024-02-28T12:09:21.609Z,100058.25
2024-02-28T12:11:57.979Z,100054.53
2024-02-28T12:14:27.052Z,100049.84
2024-02-28T12:16:56.013Z,100051.25
2024-02-28T12:19:25.978Z,100052.41
2024-02-28T12:21:55.523Z,100057.34
2024-02-28T12:24:24.903Z,100055.91
2024-02-28T12:26:53.524Z,100061.03
2024-02-28T12:29:24.545Z,100059.22
2024-02-28T12:31:53.399Z,100057.63
2024-02-28T12:34:24.048Z,100051.22
2024-02-28T12:36:53.038Z,100052.25
2024-02-28T12:39:21.828Z,100063.25
2024-02-28T12:41:50.702Z,100057.09
2024-02-28T12:44:19.879Z,100049.59
2024-02-28T12:46:50.185Z,100043.22
2024-02-28T12:49:21.847Z,100051.47
2024-02-28T12:51:52.894Z,100048.66
2024-02-28T12:54:22.442Z,100050.37
2024-02-28T12:56:52.047Z,100041.22
2024-02-28T12:59:21.788Z,100047.50
2024-02-28T13:01:52.892Z,100046.47
2024-02-28T13:04:29.498Z,100044.06
2024-02-28T13:06:58.256Z,100041.22
2024-02-28T13:09:27.640Z,100036.69
2024-02-28T13:11:56.183Z,100041.59
2024-02-28T13:14:24.779Z,100036.38
2024-02-28T13:16:55.949Z,100043.81
2024-02-28T13:19:24.633Z,100037.19
2024-02-28T13:21:53.646Z,100034.31
2024-02-28T13:24:22.896Z,100034.97
2024-02-28T13:26:51.480Z,100033.28
2024-02-28T13:29:20.565Z,100028.09
2024-02-28T13:31:49.458Z,100039.03
2024-02-28T13:34:20.272Z,100022.22
2024-02-28T13:36:49.634Z,100024.59
2024-02-28T13:39:18.367Z,100017.84
2024-02-28T13:41:46.972Z,100020.25
2024-02-28T13:44:16.067Z,100010.56
2024-02-28T13:46:44.537Z,100015.25
2024-02-28T13:49:14.785Z,100021.47
2024-02-28T13:51:45.531Z,100014.78
2024-02-28T13:54:14.368Z,100018.34
2024-02-28T13:56:43.439Z,100014.75
2024-02-28T13:59:15.677Z,100018.50
2024-02-28T14:01:44.706Z,100011.53
2024-02-28T14:04:14.575Z,100013.78
2024-02-28T14:06:43.705Z,100005.94
2024-02-28T14:09:13.797Z,100005.53
2024-02-28T14:11:42.613Z,100009.84
2024-02-28T14:14:13.095Z,100001.38
2024-02-28T14:16:41.965Z,100011.06
2024-02-28T14:19:11.163Z,100017.81
2024-02-28T14:21:39.611Z,100007.16
2024-02-28T14:24:11.524Z,100007.28
2024-02-28T14:26:41.918Z,100006.63
2024-02-28T14:29:10.862Z,100018.69
2024-02-28T14:31:39.391Z,100020.75
2024-02-28T14:34:08.196Z,100023.25
2024-02-28T14:36:37.282Z,100029.81
2024-02-28T14:39:05.845Z,100026.28
2024-02-28T14:41:35.882Z,100015.97
2024-02-28T14:44:06.952Z,100019.00
2024-02-28T14:46:35.454Z,100015.88
2024-02-28T14:49:04.191Z,100022.19
2024-02-28T14:51:34.282Z,100025.78
2024-02-28T14:54:03.456Z,100022.69
2024-02-28T14:56:32.465Z,100025.78
2024-02-28T14:59:01.093Z,100031.94
2024-02-28T15:01:32.348Z,100024.88
2024-02-28T15:04:02.493Z,100023.87
2024-02-28T15:06:31.096Z,100025.62
2024-02-28T15:09:00.540Z,100031.00
2024-02-28T15:11:29.618Z,100027.81
2024-02-28T15:14:00.793Z,100027.81
2024-02-28T15:16:29.684Z,100032.59
2024-02-28T15:19:01.153Z,100037.81
2024-02-28T15:21:29.875Z,100035.03
2024-02-28T15:23:58.566Z,100037.81
2024-02-28T15:26:31.901Z,100039.22
2024-02-28T15:29:08.666Z,100047.50
2024-02-28T15:31:40.610Z,100041.59
2024-02-28T15:34:11.652Z,100040.75
2024-02-28T15:36:40.719Z,100046.09
2024-02-28T15:39:09.521Z,100044.81
2024-02-28T15:41:40.859Z,100040.63
2024-02-28T15:44:10.524Z,100047.09
2024-02-28T15:46:39.599Z,100046.53
2024-02-28T15:49:10.134Z,100047.37
2024-02-28T15:51:43.791Z,100046.28
2024-02-28T15:54:12.683Z,100048.84
2024-02-28T15:56:41.449Z,100051.94
2024-02-28T15:59:13.444Z,100057.66
2024-02-28T16:01:43.082Z,100061.56
2024-02-28T16:04:12.347Z,100064.09
2024-02-28T16:06:43.120Z,100066.88
2024-02-28T16:09:16.064Z,100066.16
2024-02-28T16:11:45.715Z,100067.53
2024-02-28T16:14:14.956Z,100066.41
2024-02-28T16:16:43.345Z,100069.41
2024-02-28T16:19:18.331Z,100076.84
2024-02-28T16:21:53.376Z,100075.00
2024-02-28T16:24:22.825Z,100078.97
2024-02-28T16:26:52.798Z,100088.78
2024-02-28T16:29:21.817Z,100085.69
2024-02-28T16:31:51.646Z,100091.34
2024-02-28T16:34:21.160Z,100089.31
2024-02-28T16:36:53.122Z,100090.44
2024-02-28T16:39:23.634Z,100094.41
2024-02-28T16:41:52.006Z,100097.09
2024-02-28T16:44:20.880Z,100101.34
2024-02-28T16:46:50.398Z,100095.53
2024-02-28T16:49:20.192Z,100097.31
2024-02-28T16:51:48.918Z,100113.28
2024-02-28T16:54:20.753Z,100104.06
2024-02-28T16:56:51.843Z,100117.91
2024-02-28T16:59:21.240Z,100117.00
2024-02-28T17:01:51.159Z,100122.25
2024-02-28T17:04:20.162Z,100118.72
2024-02-28T17:09:26.006Z,100121.84
2024-02-28T17:11:56.569Z,100130.06
2024-02-28T17:14:25.413Z,100130.94
2024-02-28T17:16:54.517Z,100136.03
2024-02-28T17:19:23.143Z,100138.00
2024-02-28T17:21:51.970Z,100133.78
2024-02-28T17:24:24.630Z,100141.66
2024-02-28T17:26:54.676Z,100143.34
2024-02-28T17:29:24.738Z,100146.16
2024-02-28T17:31:54.790Z,100145.41
2024-02-28T17:34:24.037Z,100144.28
2024-02-28T17:36:53.343Z,100154.56
2024-02-28T17:39:26.875Z,100149.06
2024-02-28T17:41:55.834Z,100150.75
2024-02-28T17:44:25.872Z,100150.41
2024-02-28T17:46:54.758Z,100153.75
2024-02-28T17:49:24.925Z,100158.94
2024-02-28T17:51:53.450Z,100163.88
2024-02-28T17:54:22.061Z,100156.56
2024-02-28T17:56:51.044Z,100157.41
2024-02-28T17:59:19.555Z,100164.50
2024-02-28T18:01:49.563Z,100159.31
2024-02-28T18:04:18.843Z,100163.00
2024-02-28T18:06:48.840Z,100158.75
2024-02-28T18:09:19.335Z,100156.69
2024-02-28T18:11:47.880Z,100161.00
2024-02-28T18:14:16.902Z,100165.50
2024-02-28T18:16:45.910Z,100172.75
2024-02-28T18:19:15.716Z,100170.06
2024-02-28T18:21:44.230Z,100170.59
2024-02-28T18:24:14.046Z,100169.72
2024-02-28T18:26:46.297Z,100172.69
2024-02-28T18:29:15.530Z,100173.91
2024-02-28T18:31:44.260Z,100172.84
2024-02-28T18:34:13.573Z,100182.66
2024-02-28T18:36:43.848Z,100182.03
2024-02-28T18:39:13.318Z,100182.16
2024-02-28T18:41:42.124Z,100186.06
2024-02-28T18:44:10.812Z,100187.16
2024-02-28T18:46:39.554Z,100184.09
2024-02-28T18:49:08.793Z,100185.94
2024-02-28T18:51:37.407Z,100191.62
2024-02-28T18:54:07.861Z,100190.03
2024-02-28T18:56:40.557Z,100197.06
2024-02-28T18:59:09.710Z,100195.38
2024-02-28T19:01:38.714Z,100201.53
2024-02-28T19:04:07.980Z,100198.66
2024-02-28T19:06:40.678Z,100201.09
2024-02-28T19:09:10.768Z,100209.81
2024-02-28T19:11:40.069Z,100210.19
2024-02-28T19:14:09.100Z,100205.34
2024-02-28T19:16:38.349Z,100214.31
2024-02-28T19:19:07.424Z,100213.94
2024-02-28T19:21:36.437Z,100220.25
2024-02-28T19:24:05.394Z,100213.94
2024-02-28T19:26:37.942Z,100213.81
2024-02-28T19:29:12.853Z,100213.19
2024-02-28T19:31:41.936Z,100215.53
2024-02-28T19:34:11.666Z,100212.69
2024-02-28T19:36:43.934Z,100224.94
2024-02-28T19:39:12.815Z,100219.38
2024-02-28T19:41:42.864Z,100221.28
2024-02-28T19:44:15.534Z,100230.22
2024-02-28T19:46:46.544Z,100225.69
2024-02-28T19:49:16.428Z,100234.97
2024-02-28T19:51:46.341Z,100233.28
2024-02-28T19:54:15.169Z,100232.06
2024-02-28T19:56:50.307Z,100237.00
2024-02-28T19:59:19.542Z,100233.72
2024-02-28T20:01:49.409Z,100235.69
2024-02-28T20:04:18.576Z,100238.16
2024-02-28T20:06:47.252Z,100237.22
2024-02-28T20:09:20.489Z,100221.94
2024-02-28T20:11:50.217Z,100230.00
2024-02-28T20:14:23.173Z,100227.09
2024-02-28T20:16:53.506Z,100231.22
2024-02-28T20:19:22.192Z,100235.09
2024-02-28T20:21:51.336Z,100234.34
2024-02-28T20:24:20.454Z,100230.91
2024-02-28T20:26:50.585Z,100236.53
2024-02-28T20:29:19.178Z,100237.06
2024-02-28T20:31:48.532Z,100239.19
2024-02-28T20:34:17.810Z,100243.09
2024-02-28T20:36:47.919Z,100240.22
2024-02-28T20:39:16.998Z,100250.31
2024-02-28T20:41:45.836Z,100247.63
2024-02-28T20:44:15.954Z,100248.22
2024-02-28T20:46:45.188Z,100252.88
2024-02-28T20:49:13.935Z,100251.78
2024-02-28T20:51:42.720Z,100251.97
2024-02-28T20:54:11.769Z,100248.94
2024-02-28T20:56:42.286Z,100251.09
2024-02-28T20:59:11.406Z,100252.47
2024-02-28T21:01:41.862Z,100250.28
2024-02-28T21:04:14.678Z,100258.38
2024-02-28T21:06:47.905Z,100261.41
2024-02-28T21:09:16.914Z,100259.72
2024-02-28T21:11:45.780Z,100252.50
2024-02-28T21:14:14.892Z,100252.81
2024-02-28T21:16:45.240Z,100250.75
2024-02-28T21:19:13.764Z,100260.53
2024-02-28T21:21:42.229Z,100260.53
2024-02-28T21:24:13.237Z,100264.37
2024-02-28T21:26:42.765Z,100254.44
2024-02-28T21:29:14.196Z,100254.97
2024-02-28T21:31:43.079Z,100259.47
2024-02-28T21:34:13.469Z,100264.13
2024-02-28T21:36:42.304Z,100267.13
2024-02-28T21:39:11.564Z,100267.44
2024-02-28T21:41:45.378Z,100259.31
2024-02-28T21:44:14.259Z,100267.16
2024-02-28T21:46:43.295Z,100263.13
2024-02-28T21:49:14.011Z,100265.56
2024-02-28T21:51:43.755Z,100258.13
2024-02-28T21:54:12.702Z,100261.94
2024-02-28T21:56:41.916Z,100263.97
2024-02-28T21:59:10.646Z,100271.19
2024-02-28T22:01:39.977Z,100269.47
2024-02-28T22:04:09.940Z,100270.13
2024-02-28T22:06:40.222Z,100269.41
2024-02-28T22:09:09.178Z,100266.75
2024-02-28T22:11:38.318Z,100267.03
2024-02-28T22:14:07.362Z,100270.03
2024-02-28T22:16:36.253Z,100271.84
2024-02-28T22:19:05.349Z,100280.25
2024-02-28T22:21:34.698Z,100280.13
2024-02-28T22:24:05.824Z,100279.94
2024-02-28T22:26:34.613Z,100274.63
2024-02-28T22:29:03.776Z,100277.81
2024-02-28T22:31:43.502Z,100283.22
2024-02-28T22:34:12.450Z,100283.75
2024-02-28T22:36:41.293Z,100281.63
2024-02-28T22:39:11.341Z,100275.25
2024-02-28T22:41:40.448Z,100270.38
2024-02-28T22:44:09.018Z,100279.81
2024-02-28T22:46:41.714Z,100275.53
2024-02-28T22:49:10.701Z,100274.19
2024-02-28T22:51:40.723Z,100274.41
2024-02-28T22:54:15.880Z,100278.81
2024-02-28T22:56:45.362Z,100268.97
2024-02-28T22:59:14.043Z,100258.78
2024-02-28T23:01:43.151Z,100262.41
2024-02-28T23:04:12.368Z,100263.06
2024-02-28T23:06:42.083Z,100261.03
2024-02-28T23:09:13.330Z,100254.31
2024-02-28T23:11:43.324Z,100254.56
2024-02-28T23:16:42.306Z,100245.56
2024-02-28T23:19:12.259Z,100247.69
2024-02-28T23:21:41.672Z,100252.38
2024-02-28T23:24:12.150Z,100259.84
2024-02-28T23:26:40.979Z,100251.94
2024-02-28T23:29:09.588Z,100253.00
2024-02-28T23:31:38.660Z,100248.16
2024-02-28T23:34:08.233Z,100256.06
2024-02-28T23:36:36.884Z,100251.91
2024-02-28T23:39:05.618Z,100269.66
2024-02-28T23:41:35.984Z,100264.22
2024-02-28T23:44:04.809Z,100262.22
2024-02-28T23:46:34.556Z,100264.47
2024-02-28T23:49:03.455Z,100269.12
2024-02-28T23:51:32.188Z,100267.53
2024-02-28T23:54:00.983Z,100267.91
2024-02-28T23:56:32.332Z,100269.12
2024-02-28T23:59:02.410Z,100273.53
